createdAt,value
2019-03-01T00:00:14.223Z,1004.25
2019-03-01T00:01:14.217Z,1004.34
2019-03-01T00:02:14.235Z,1004.27
2019-03-01T00:03:14.191Z,1004.23
2019-03-01T00:04:14.188Z,1004.28
2019-03-01T00:05:14.187Z,1004.30
2019-03-01T00:06:14.186Z,1004.29
2019-03-01T00:07:14.169Z,1004.23
2019-03-01T00:08:14.170Z,1004.18
2019-03-01T00:09:14.202Z,1004.18
2019-03-01T00:10:14.127Z,1004.16
2019-03-01T00:11:14.136Z,1004.13
2019-03-01T00:12:14.112Z,1004.12
2019-03-01T00:13:14.168Z,1004.10
2019-03-01T00:14:14.078Z,1004.08
2019-03-01T00:15:14.068Z,1004.13
2019-03-01T00:16:14.066Z,1004.13
2019-03-01T00:17:14.062Z,1004.18
2019-03-01T00:18:14.076Z,1004.20
2019-03-01T00:19:14.040Z,1004.21
2019-03-01T00:20:14.024Z,1004.19
2019-03-01T00:21:14.014Z,1004.18
2019-03-01T00:22:14.017Z,1004.22
2019-03-01T00:23:13.996Z,1004.33
2019-03-01T00:24:14.005Z,1004.29
2019-03-01T00:25:13.987Z,1004.27
2019-03-01T00:26:13.963Z,1004.24
2019-03-01T00:27:13.950Z,1004.25
2019-03-01T00:28:13.934Z,1004.17
2019-03-01T00:29:13.938Z,1004.21
2019-03-01T00:30:13.938Z,1004.16
2019-03-01T00:31:13.907Z,1004.17
2019-03-01T00:32:13.901Z,1004.19
2019-03-01T00:33:13.891Z,1004.19
2019-03-01T00:34:13.878Z,1004.15
2019-03-01T00:35:13.894Z,1004.12
2019-03-01T00:36:13.861Z,1004.16
2019-03-01T00:37:13.857Z,1004.17
2019-03-01T00:38:13.828Z,1004.16
2019-03-01T00:39:13.819Z,1004.14
2019-03-01T00:40:13.850Z,1004.20
2019-03-01T00:41:13.811Z,1004.16
2019-03-01T00:42:13.802Z,1004.21
2019-03-01T00:43:13.778Z,1004.17
2019-03-01T00:44:13.771Z,1004.16
2019-03-01T00:45:13.762Z,1004.19
2019-03-01T00:46:13.787Z,1004.07
2019-03-01T00:47:13.756Z,1004.07
2019-03-01T00:48:13.739Z,1004.03
2019-03-01T00:49:13.712Z,1004.06
2019-03-01T00:50:14.699Z,1004.05
2019-03-01T00:51:13.714Z,1004.01
2019-03-01T00:52:13.696Z,1004.02
2019-03-01T00:53:13.687Z,1004.02
2019-03-01T00:54:13.671Z,1003.98
2019-03-01T00:55:13.658Z,1003.90
2019-03-01T00:56:13.657Z,1003.94
2019-03-01T00:57:13.633Z,1003.91
2019-03-01T00:58:13.632Z,1003.94
2019-03-01T00:59:13.624Z,1004.02
2019-03-01T01:00:13.614Z,1003.90
2019-03-01T01:01:13.620Z,1003.99
2019-03-01T01:02:13.579Z,1004.02
2019-03-01T01:03:13.570Z,1004.01
2019-03-01T01:04:13.571Z,1004.03
2019-03-01T01:05:13.553Z,1003.99
2019-03-01T01:06:13.547Z,1003.94
2019-03-01T01:07:13.563Z,1003.98
2019-03-01T01:08:13.515Z,1003.90
2019-03-01T01:09:13.502Z,1003.92
2019-03-01T01:10:13.499Z,1003.88
2019-03-01T01:11:13.501Z,1003.89
2019-03-01T01:12:13.518Z,1003.87
2019-03-01T01:13:13.467Z,1003.84
2019-03-01T01:14:13.470Z,1003.86
2019-03-01T01:15:13.442Z,1003.81
2019-03-01T01:16:13.440Z,1003.85
2019-03-01T01:17:13.449Z,1003.84
2019-03-01T01:18:13.414Z,1003.82
2019-03-01T01:19:13.402Z,1003.85
2019-03-01T01:20:13.388Z,1003.78
2019-03-01T01:21:13.377Z,1003.84
2019-03-01T01:22:13.383Z,1003.85
2019-03-01T01:23:13.386Z,1003.78
2019-03-01T01:24:13.353Z,1003.80
2019-03-01T01:25:13.336Z,1003.88
2019-03-01T01:26:13.326Z,1003.86
2019-03-01T01:28:36.021Z,1003.86
2019-03-01T01:29:35.991Z,1003.90
2019-03-01T01:30:35.966Z,1003.85
2019-03-01T01:31:35.978Z,1003.83
2019-03-01T01:32:35.943Z,1003.82
2019-03-01T01:33:35.937Z,1003.80
2019-03-01T01:34:35.949Z,1003.78
2019-03-01T01:35:35.924Z,1003.80
2019-03-01T01:36:35.905Z,1003.77
2019-03-01T01:37:35.894Z,1003.76
2019-03-01T01:38:35.891Z,1003.72
2019-03-01T01:39:35.916Z,1003.68
2019-03-01T01:40:35.870Z,1003.70
2019-03-01T01:41:35.861Z,1003.66
2019-03-01T01:42:35.844Z,1003.63
2019-03-01T01:43:35.844Z,1003.57
2019-03-01T01:44:35.821Z,1003.62
2019-03-01T01:45:35.830Z,1003.60
2019-03-01T01:46:35.804Z,1003.57
2019-03-01T01:47:35.793Z,1003.59
2019-03-01T01:48:35.785Z,1003.56
2019-03-01T01:49:35.773Z,1003.52
2019-03-01T01:50:35.783Z,1003.54
2019-03-01T01:51:35.746Z,1003.44
2019-03-01T01:52:35.740Z,1003.42
2019-03-01T01:53:35.730Z,1003.36
2019-03-01T01:54:35.715Z,1003.25
2019-03-01T01:55:35.717Z,1003.25
2019-03-01T01:56:35.716Z,1003.26
2019-03-01T01:57:35.711Z,1003.08
2019-03-01T01:58:35.678Z,1003.16
2019-03-01T01:59:35.677Z,1003.04
2019-03-01T02:00:35.656Z,1002.99
2019-03-01T02:01:35.644Z,1002.92
2019-03-01T02:02:35.649Z,1003.03
2019-03-01T02:03:35.619Z,1003.07
2019-03-01T02:04:35.612Z,1003.17
2019-03-01T02:05:35.600Z,1003.02
2019-03-01T02:06:35.599Z,1003.02
2019-03-01T02:07:35.602Z,1003.09
2019-03-01T02:08:35.568Z,1003.11
2019-03-01T02:09:35.556Z,1003.09
2019-03-01T02:10:35.558Z,1003.10
2019-03-01T02:11:35.541Z,1003.16
2019-03-01T02:12:35.550Z,1003.10
2019-03-01T02:13:35.523Z,1002.98
2019-03-01T02:14:35.512Z,1003.01
2019-03-01T02:15:35.495Z,1003.06
2019-03-01T02:16:35.484Z,1003.06
2019-03-01T02:17:35.499Z,1003.12
2019-03-01T02:18:35.479Z,1003.08
2019-03-01T02:19:35.460Z,1003.05
2019-03-01T02:20:35.448Z,1003.05
2019-03-01T02:21:35.463Z,1003.02
2019-03-01T02:22:35.417Z,1003.07
2019-03-01T02:23:35.428Z,1003.15
2019-03-01T02:24:35.418Z,1003.01
2019-03-01T02:25:35.400Z,1003.13
2019-03-01T02:26:36.105Z,1003.06
2019-03-01T02:27:35.406Z,1003.05
2019-03-01T02:28:35.422Z,1003.03
2019-03-01T02:29:35.355Z,1003.10
2019-03-01T02:30:35.345Z,1003.02
2019-03-01T02:31:35.337Z,1003.01
2019-03-01T02:32:35.343Z,1003.03
2019-03-01T02:33:35.318Z,1003.02
2019-03-01T02:34:35.327Z,1002.98
2019-03-01T02:35:35.325Z,1002.93
2019-03-01T02:36:35.277Z,1002.98
2019-03-01T02:37:35.287Z,1002.99
2019-03-01T02:38:35.277Z,1002.94
2019-03-01T02:39:35.252Z,1002.94
2019-03-01T02:40:35.255Z,1002.92
2019-03-01T02:41:35.232Z,1002.99
2019-03-01T02:42:35.253Z,1002.98
2019-03-01T02:43:35.221Z,1003.05
2019-03-01T02:44:35.217Z,1002.95
2019-03-01T02:45:35.218Z,1002.99
2019-03-01T02:46:35.172Z,1002.97
2019-03-01T02:47:43.627Z,1002.99
2019-03-01T02:48:35.169Z,1002.89
2019-03-01T02:49:35.152Z,1002.93
2019-03-01T02:50:35.155Z,1002.91
2019-03-01T02:51:35.130Z,1002.87
2019-03-01T02:52:35.119Z,1002.90
2019-03-01T02:53:35.102Z,1002.94
2019-03-01T02:54:35.097Z,1002.95
2019-03-01T02:55:35.159Z,1002.96
2019-03-01T02:56:35.076Z,1002.97
2019-03-01T02:57:35.074Z,1002.97
2019-03-01T02:58:35.066Z,1002.99
2019-03-01T02:59:35.039Z,1002.93
2019-03-01T03:00:35.061Z,1002.95
2019-03-01T03:01:35.056Z,1002.93
2019-03-01T03:02:35.045Z,1002.90
2019-03-01T03:03:35.018Z,1002.87
2019-03-01T03:04:34.988Z,1002.91
2019-03-01T03:05:34.987Z,1002.90
2019-03-01T03:06:34.989Z,1002.91
2019-03-01T03:07:37.626Z,1002.93
2019-03-01T03:08:34.955Z,1002.90
2019-03-01T03:09:34.946Z,1002.88
2019-03-01T03:10:34.924Z,1002.93
2019-03-01T03:11:34.935Z,1002.90
2019-03-01T03:12:34.914Z,1002.90
2019-03-01T03:13:34.905Z,1002.92
2019-03-01T03:14:34.891Z,1002.92
2019-03-01T03:15:34.881Z,1002.93
2019-03-01T03:16:34.880Z,1002.94
2019-03-01T03:17:34.869Z,1002.91
2019-03-01T03:18:34.843Z,1002.99
2019-03-01T03:19:34.853Z,1002.91
2019-03-01T03:20:34.826Z,1002.93
2019-03-01T03:21:34.837Z,1002.88
2019-03-01T03:22:34.823Z,1002.92
2019-03-01T03:23:34.795Z,1002.93
2019-03-01T03:24:34.795Z,1002.91
2019-03-01T03:25:34.767Z,1002.89
2019-03-01T03:26:34.762Z,1002.93
2019-03-01T03:27:34.795Z,1002.96
2019-03-01T03:28:34.733Z,1002.90
2019-03-01T03:29:34.724Z,1002.92
2019-03-01T03:30:34.720Z,1002.86
2019-03-01T03:31:34.738Z,1002.89
2019-03-01T03:32:34.698Z,1002.93
2019-03-01T03:33:34.711Z,1002.92
2019-03-01T03:34:34.713Z,1002.85
2019-03-01T03:35:34.670Z,1002.82
2019-03-01T03:36:34.656Z,1002.86
2019-03-01T03:37:34.645Z,1002.81
2019-03-01T03:38:34.627Z,1002.82
2019-03-01T03:39:34.635Z,1002.85
2019-03-01T03:40:34.655Z,1002.79
2019-03-01T03:41:34.600Z,1002.85
2019-03-01T03:42:34.581Z,1002.78
2019-03-01T03:43:34.599Z,1002.85
2019-03-01T03:44:34.566Z,1002.83
2019-03-01T03:45:34.588Z,1002.88
2019-03-01T03:46:34.596Z,1002.90
2019-03-01T03:47:34.535Z,1002.80
2019-03-01T03:48:36.292Z,1002.79
2019-03-01T03:49:34.528Z,1002.74
2019-03-01T03:50:34.493Z,1002.80
2019-03-01T03:51:34.483Z,1002.77
2019-03-01T03:52:34.482Z,1002.74
2019-03-01T03:53:34.471Z,1002.80
2019-03-01T03:54:34.481Z,1002.77
2019-03-01T03:55:34.451Z,1002.80
2019-03-01T03:56:34.427Z,1002.82
2019-03-01T03:57:34.414Z,1002.79
2019-03-01T03:58:34.420Z,1002.72
2019-03-01T03:59:34.404Z,1002.71
2019-03-01T04:00:34.403Z,1002.74
2019-03-01T04:01:34.379Z,1002.74
2019-03-01T04:02:34.365Z,1002.74
2019-03-01T04:03:34.351Z,1002.69
2019-03-01T04:04:34.362Z,1002.71
2019-03-01T04:05:34.390Z,1002.62
2019-03-01T04:06:34.328Z,1002.60
2019-03-01T04:07:34.322Z,1002.55
2019-03-01T04:08:34.305Z,1002.56
2019-03-01T04:09:34.293Z,1002.50
2019-03-01T04:10:34.276Z,1002.56
2019-03-01T04:11:34.299Z,1002.54
2019-03-01T04:12:34.263Z,1002.48
2019-03-01T04:13:34.249Z,1002.47
2019-03-01T04:14:34.232Z,1002.45
2019-03-01T04:15:34.224Z,1002.52
2019-03-01T04:16:34.239Z,1002.47
2019-03-01T04:17:35.146Z,1002.41
2019-03-01T04:18:34.196Z,1002.39
2019-03-01T04:19:34.186Z,1002.47
2019-03-01T04:20:34.169Z,1002.41
2019-03-01T04:21:34.165Z,1002.37
2019-03-01T04:22:34.177Z,1002.39
2019-03-01T04:23:34.140Z,1002.41
2019-03-01T04:24:34.138Z,1002.42
2019-03-01T04:25:34.122Z,1002.44
2019-03-01T04:26:34.114Z,1002.44
2019-03-01T04:27:34.121Z,1002.38
2019-03-01T04:28:34.085Z,1002.36
2019-03-01T04:29:34.077Z,1002.38
2019-03-01T04:30:34.065Z,1002.34
2019-03-01T04:31:34.058Z,1002.29
2019-03-01T04:32:34.061Z,1002.24
2019-03-01T04:33:34.030Z,1002.30
2019-03-01T04:34:34.020Z,1002.27
2019-03-01T04:35:34.010Z,1002.24
2019-03-01T04:36:34.022Z,1002.22
2019-03-01T04:37:34.009Z,1002.21
2019-03-01T04:38:33.980Z,1002.25
2019-03-01T04:39:33.972Z,1002.16
2019-03-01T04:40:33.953Z,1002.17
2019-03-01T04:41:33.951Z,1002.21
2019-03-01T04:42:33.984Z,1002.15
2019-03-01T04:43:33.920Z,1002.14
2019-03-01T04:44:33.919Z,1002.14
2019-03-01T04:45:33.907Z,1002.13
2019-03-01T04:46:33.896Z,1002.13
2019-03-01T04:47:33.882Z,1002.11
2019-03-01T04:48:33.905Z,1002.05
2019-03-01T04:49:33.867Z,1002.03
2019-03-01T04:50:33.856Z,1002.07
2019-03-01T04:51:40.135Z,1002.07
2019-03-01T04:52:34.835Z,1002.05
2019-03-01T04:53:33.820Z,1001.99
2019-03-01T04:54:33.835Z,1001.97
2019-03-01T04:55:33.795Z,1001.96
2019-03-01T04:56:33.794Z,1001.94
2019-03-01T04:57:33.783Z,1001.92
2019-03-01T04:58:33.769Z,1001.88
2019-03-01T04:59:33.780Z,1001.86
2019-03-01T05:00:33.741Z,1001.93
2019-03-01T05:01:33.729Z,1001.84
2019-03-01T05:02:33.726Z,1001.82
2019-03-01T05:03:33.717Z,1001.84
2019-03-01T05:04:33.715Z,1001.77
2019-03-01T05:05:33.701Z,1001.79
2019-03-01T05:06:33.681Z,1001.80
2019-03-01T05:07:33.666Z,1001.77
2019-03-01T05:08:33.664Z,1001.85
2019-03-01T05:09:33.680Z,1001.85
2019-03-01T05:10:33.645Z,1001.83
2019-03-01T05:11:33.645Z,1001.86
2019-03-01T05:12:33.615Z,1001.87
2019-03-01T05:13:33.616Z,1001.81
2019-03-01T05:14:33.622Z,1001.86
2019-03-01T05:15:33.586Z,1001.87
2019-03-01T05:16:33.578Z,1001.84
2019-03-01T05:17:33.571Z,1001.81
2019-03-01T05:18:33.554Z,1001.78
2019-03-01T05:19:33.543Z,1001.79
2019-03-01T05:20:33.557Z,1001.84
2019-03-01T05:21:33.526Z,1001.83
2019-03-01T05:22:33.516Z,1001.77
2019-03-01T05:23:33.505Z,1001.81
2019-03-01T05:24:33.539Z,1001.84
2019-03-01T05:25:33.490Z,1001.86
2019-03-01T05:26:33.477Z,1001.94
2019-03-01T05:27:33.459Z,1001.87
2019-03-01T05:28:33.458Z,1001.87
2019-03-01T05:29:33.442Z,1001.95
2019-03-01T05:30:33.453Z,1001.94
2019-03-01T05:31:33.423Z,1001.99
2019-03-01T05:32:33.400Z,1001.89
2019-03-01T05:33:33.399Z,1001.91
2019-03-01T05:34:33.385Z,1002.00
2019-03-01T05:35:33.405Z,1001.93
2019-03-01T05:36:33.362Z,1001.94
2019-03-01T05:37:33.353Z,1001.99
2019-03-01T05:38:33.338Z,1002.03
2019-03-01T05:39:33.329Z,1002.03
2019-03-01T05:40:33.326Z,1002.09
2019-03-01T05:41:33.347Z,1002.13
2019-03-01T05:42:33.307Z,1002.08
2019-03-01T05:43:33.299Z,1002.13
2019-03-01T05:44:33.308Z,1002.05
2019-03-01T05:45:33.266Z,1002.07
2019-03-01T05:46:33.271Z,1002.06
2019-03-01T05:47:33.248Z,1002.03
2019-03-01T05:48:34.238Z,1002.03
2019-03-01T05:49:33.243Z,1002.02
2019-03-01T05:50:33.213Z,1001.99
2019-03-01T05:51:33.219Z,1001.99
2019-03-01T05:52:33.198Z,1002.02
2019-03-01T05:53:33.188Z,1001.96
2019-03-01T05:54:33.180Z,1001.94
2019-03-01T05:55:33.189Z,1001.91
2019-03-01T05:56:33.147Z,1001.99
2019-03-01T05:57:33.137Z,1001.92
2019-03-01T05:58:33.150Z,1001.96
2019-03-01T05:59:42.197Z,1001.99
2019-03-01T06:00:33.118Z,1001.93
2019-03-01T06:01:33.103Z,1001.93
2019-03-01T06:02:33.106Z,1001.95
2019-03-01T06:03:33.078Z,1001.96
2019-03-01T06:04:33.073Z,1001.94
2019-03-01T06:05:33.061Z,1001.96
2019-03-01T06:06:34.043Z,1001.97
2019-03-01T06:07:33.059Z,1001.93
2019-03-01T06:08:33.022Z,1001.89
2019-03-01T06:09:33.023Z,1001.91
2019-03-01T06:10:33.014Z,1001.95
2019-03-01T06:11:32.997Z,1001.91
2019-03-01T06:12:33.016Z,1001.95
2019-03-01T06:13:32.998Z,1001.95
2019-03-01T06:14:33.036Z,1001.91
2019-03-01T06:15:32.948Z,1001.89
2019-03-01T06:16:32.938Z,1001.92
2019-03-01T06:17:32.939Z,1001.88
2019-03-01T06:18:32.946Z,1001.85
2019-03-01T06:19:32.910Z,1001.88
2019-03-01T06:20:32.896Z,1001.98
2019-03-01T06:21:32.881Z,1001.93
2019-03-01T06:22:32.882Z,1001.88
2019-03-01T06:23:32.888Z,1001.91
2019-03-01T06:24:32.886Z,1001.86
2019-03-01T06:25:32.842Z,1001.91
2019-03-01T06:26:32.827Z,1001.90
2019-03-01T06:27:32.817Z,1001.87
2019-03-01T06:28:32.810Z,1001.85
2019-03-01T06:29:32.814Z,1001.88
2019-03-01T06:30:32.790Z,1001.91
2019-03-01T06:31:32.779Z,1001.88
2019-03-01T06:32:32.768Z,1001.88
2019-03-01T06:33:32.760Z,1001.84
2019-03-01T06:34:32.766Z,1001.86
2019-03-01T06:35:32.733Z,1001.86
2019-03-01T06:36:32.743Z,1001.89
2019-03-01T06:37:32.713Z,1001.97
2019-03-01T06:38:32.699Z,1001.95
2019-03-01T06:39:32.687Z,1001.93
2019-03-01T06:40:32.700Z,1001.99
2019-03-01T06:41:32.695Z,1002.01
2019-03-01T06:42:32.665Z,1002.07
2019-03-01T06:43:32.652Z,1002.13
2019-03-01T06:44:32.640Z,1002.07
2019-03-01T06:45:32.631Z,1002.14
2019-03-01T06:46:32.640Z,1002.14
2019-03-01T06:47:32.600Z,1002.17
2019-03-01T06:48:32.589Z,1002.14
2019-03-01T06:49:32.580Z,1002.04
2019-03-01T06:50:32.575Z,1002.14
2019-03-01T06:51:32.586Z,1002.14
2019-03-01T06:52:32.576Z,1002.17
2019-03-01T06:53:32.543Z,1002.14
2019-03-01T06:54:32.551Z,1002.16
2019-03-01T06:55:32.527Z,1002.23
2019-03-01T06:56:32.537Z,1002.20
2019-03-01T06:57:32.507Z,1002.25
2019-03-01T06:58:32.486Z,1002.32
2019-03-01T06:59:32.482Z,1002.31
2019-03-01T07:00:32.485Z,1002.34
2019-03-01T07:01:32.454Z,1002.34
2019-03-01T07:02:32.449Z,1002.31
2019-03-01T07:03:32.473Z,1002.31
2019-03-01T07:04:32.428Z,1002.29
2019-03-01T07:05:32.484Z,1002.36
2019-03-01T07:06:32.403Z,1002.33
2019-03-01T07:07:32.388Z,1002.29
2019-03-01T07:08:32.403Z,1002.22
2019-03-01T07:09:32.397Z,1002.24
2019-03-01T07:10:32.358Z,1002.23
2019-03-01T07:11:32.349Z,1002.19
2019-03-01T07:12:32.340Z,1002.23
2019-03-01T07:13:32.327Z,1002.21
2019-03-01T07:14:32.341Z,1002.22
2019-03-01T07:15:32.353Z,1002.19
2019-03-01T07:16:32.301Z,1002.20
2019-03-01T07:17:32.290Z,1002.26
2019-03-01T07:18:32.273Z,1002.24
2019-03-01T07:19:32.283Z,1002.21
2019-03-01T07:20:32.267Z,1002.22
2019-03-01T07:21:32.242Z,1002.24
2019-03-01T07:22:32.235Z,1002.27
2019-03-01T07:23:36.854Z,1002.27
2019-03-01T07:24:32.242Z,1002.25
2019-03-01T07:25:32.206Z,1002.31
2019-03-01T07:26:32.212Z,1002.19
2019-03-01T07:27:32.191Z,1002.28
2019-03-01T07:28:32.175Z,1002.19
2019-03-01T07:29:32.161Z,1002.22
2019-03-01T07:30:32.235Z,1002.18
2019-03-01T07:31:32.133Z,1002.19
2019-03-01T07:32:32.127Z,1002.28
2019-03-01T07:33:32.119Z,1002.30
2019-03-01T07:34:32.111Z,1002.21
2019-03-01T07:35:32.118Z,1002.31
2019-03-01T07:36:32.092Z,1002.30
2019-03-01T07:37:32.078Z,1002.23
2019-03-01T07:38:32.064Z,1002.24
2019-03-01T07:39:32.049Z,1002.21
2019-03-01T07:40:32.075Z,1002.23
2019-03-01T07:41:32.036Z,1002.21
2019-03-01T07:42:32.019Z,1002.27
2019-03-01T07:43:32.014Z,1002.20
2019-03-01T07:44:32.002Z,1002.31
2019-03-01T07:45:31.988Z,1002.27
2019-03-01T07:46:32.017Z,1002.28
2019-03-01T07:47:34.079Z,1002.31
2019-03-01T07:48:31.960Z,1002.26
2019-03-01T07:49:31.959Z,1002.29
2019-03-01T07:50:31.933Z,1002.28
2019-03-01T07:51:31.932Z,1002.28
2019-03-01T07:52:31.953Z,1002.30
2019-03-01T07:53:31.903Z,1002.25
2019-03-01T07:54:31.905Z,1002.24
2019-03-01T07:55:31.891Z,1002.24
2019-03-01T07:56:31.876Z,1002.21
2019-03-01T07:57:31.891Z,1002.27
2019-03-01T07:58:31.855Z,1002.21
2019-03-01T07:59:38.008Z,1002.16
2019-03-01T08:00:32.833Z,1002.23
2019-03-01T08:01:31.829Z,1002.18
2019-03-01T08:02:35.984Z,1002.21
2019-03-01T08:03:32.804Z,1002.26
2019-03-01T08:04:31.791Z,1002.28
2019-03-01T08:05:31.782Z,1002.28
2019-03-01T08:06:31.765Z,1002.26
2019-03-01T08:07:31.778Z,1002.25
2019-03-01T08:08:34.747Z,1002.31
2019-03-01T08:09:36.085Z,1002.31
2019-03-01T08:10:31.733Z,1002.28
2019-03-01T08:11:32.455Z,1002.31
2019-03-01T08:12:31.734Z,1002.27
2019-03-01T08:13:31.720Z,1002.26
2019-03-01T08:14:31.720Z,1002.28
2019-03-01T08:15:31.680Z,1002.24
2019-03-01T08:16:31.673Z,1002.29
2019-03-01T08:17:32.537Z,1002.30
2019-03-01T08:18:31.665Z,1002.28
2019-03-01T08:19:31.630Z,1002.23
2019-03-01T08:20:33.896Z,1002.25
2019-03-01T08:21:31.621Z,1002.26
2019-03-01T08:22:31.604Z,1002.25
2019-03-01T08:23:34.756Z,1002.32
2019-03-01T08:24:31.608Z,1002.25
2019-03-01T08:25:31.571Z,1002.23
2019-03-01T08:26:34.097Z,1002.24
2019-03-01T08:27:31.547Z,1002.20
2019-03-01T08:28:31.537Z,1002.19
2019-03-01T08:29:34.050Z,1002.24
2019-03-01T08:30:31.536Z,1002.23
2019-03-01T08:31:31.508Z,1002.19
2019-03-01T08:32:31.896Z,1002.20
2019-03-01T08:33:31.480Z,1002.24
2019-03-01T08:34:31.500Z,1002.25
2019-03-01T08:35:32.338Z,1002.27
2019-03-01T08:36:31.467Z,1002.29
2019-03-01T08:37:31.444Z,1002.32
2019-03-01T08:38:33.294Z,1002.28
2019-03-01T08:39:31.441Z,1002.32
2019-03-01T08:40:31.431Z,1002.32
2019-03-01T08:41:31.401Z,1002.27
2019-03-01T08:42:32.623Z,1002.32
2019-03-01T08:43:31.386Z,1002.28
2019-03-01T08:44:31.380Z,1002.26
2019-03-01T08:45:32.911Z,1002.24
2019-03-01T08:46:32.229Z,1002.24
2019-03-01T08:47:31.348Z,1002.24
2019-03-01T08:48:33.647Z,1002.25
2019-03-01T08:49:31.322Z,1002.17
2019-03-01T08:50:31.323Z,1002.16
2019-03-01T08:51:31.320Z,1002.27
2019-03-01T08:52:31.284Z,1002.31
2019-03-01T08:53:31.281Z,1002.31
2019-03-01T08:54:31.339Z,1002.31
2019-03-01T08:55:31.254Z,1002.30
2019-03-01T08:56:31.768Z,1002.33
2019-03-01T08:57:31.233Z,1002.34
2019-03-01T08:58:31.219Z,1002.23
2019-03-01T08:59:31.218Z,1002.38
2019-03-01T09:00:31.204Z,1002.36
2019-03-01T09:01:31.808Z,1002.39
2019-03-01T09:02:31.175Z,1002.34
2019-03-01T09:03:31.166Z,1002.38
2019-03-01T09:04:37.525Z,1002.34
2019-03-01T09:05:32.143Z,1002.36
2019-03-01T09:06:31.168Z,1002.40
2019-03-01T09:07:31.131Z,1002.40
2019-03-01T09:08:31.117Z,1002.34
2019-03-01T09:09:31.107Z,1002.43
2019-03-01T09:10:32.482Z,1002.38
2019-03-01T09:11:31.107Z,1002.43
2019-03-01T09:12:31.112Z,1002.47
2019-03-01T09:13:31.058Z,1002.46
2019-03-01T09:14:31.057Z,1002.44
2019-03-01T09:15:31.047Z,1002.51
2019-03-01T09:16:31.029Z,1002.51
2019-03-01T09:17:31.019Z,1002.49
2019-03-01T09:18:31.040Z,1002.56
2019-03-01T09:19:31.007Z,1002.50
2019-03-01T09:20:32.545Z,1002.49
2019-03-01T09:21:31.985Z,1002.52
2019-03-01T09:22:30.970Z,1002.52
2019-03-01T09:23:30.989Z,1002.55
2019-03-01T09:24:30.945Z,1002.54
2019-03-01T09:25:30.939Z,1002.62
2019-03-01T09:26:31.034Z,1002.54
2019-03-01T09:27:31.121Z,1002.46
2019-03-01T09:28:32.689Z,1002.54
2019-03-01T09:29:30.907Z,1002.53
2019-03-01T09:30:30.995Z,1002.49
2019-03-01T09:31:30.871Z,1002.53
2019-03-01T09:32:33.896Z,1002.47
2019-03-01T09:33:30.878Z,1002.43
2019-03-01T09:34:32.074Z,1002.47
2019-03-01T09:35:30.844Z,1002.46
2019-03-01T09:36:30.823Z,1002.41
2019-03-01T09:37:32.478Z,1002.42
2019-03-01T09:38:30.822Z,1002.42
2019-03-01T09:39:32.602Z,1002.45
2019-03-01T09:40:30.778Z,1002.47
2019-03-01T09:41:30.775Z,1002.45
2019-03-01T09:42:30.751Z,1002.41
2019-03-01T09:43:30.774Z,1002.43
2019-03-01T09:44:30.735Z,1002.47
2019-03-01T09:45:36.213Z,1002.48
2019-03-01T09:46:31.715Z,1002.56
2019-03-01T09:47:33.523Z,1002.51
2019-03-01T09:48:31.722Z,1002.50
2019-03-01T09:49:30.721Z,1002.55
2019-03-01T09:50:31.601Z,1002.55
2019-03-01T09:51:30.663Z,1002.51
2019-03-01T09:52:30.654Z,1002.55
2019-03-01T09:53:33.980Z,1002.52
2019-03-01T09:54:30.647Z,1002.50
2019-03-01T09:55:30.615Z,1002.52
2019-03-01T09:56:30.613Z,1002.50
2019-03-01T09:57:30.592Z,1002.57
2019-03-01T09:58:30.636Z,1002.59
2019-03-01T09:59:30.603Z,1002.54
2019-03-01T10:00:30.574Z,1002.54
2019-03-01T10:01:30.558Z,1002.51
2019-03-01T10:02:30.540Z,1002.53
2019-03-01T10:03:30.529Z,1002.54
2019-03-01T10:04:30.548Z,1002.50
2019-03-01T10:05:30.512Z,1002.49
2019-03-01T10:06:37.834Z,1002.49
2019-03-01T10:07:31.504Z,1002.45
2019-03-01T10:08:30.515Z,1002.44
2019-03-01T10:09:30.496Z,1002.44
2019-03-01T10:10:30.469Z,1002.46
2019-03-01T10:11:31.449Z,1002.45
2019-03-01T10:12:30.445Z,1002.49
2019-03-01T10:13:30.539Z,1002.49
2019-03-01T10:14:30.459Z,1002.51
2019-03-01T10:15:30.407Z,1002.47
2019-03-01T10:16:30.394Z,1002.49
2019-03-01T10:17:30.381Z,1002.48
2019-03-01T10:18:30.395Z,1002.43
2019-03-01T10:19:30.397Z,1002.44
2019-03-01T10:20:30.350Z,1002.46
2019-03-01T10:21:30.339Z,1002.48
2019-03-01T10:22:30.335Z,1002.48
2019-03-01T10:23:30.325Z,1002.49
2019-03-01T10:24:30.343Z,1002.52
2019-03-01T10:25:30.773Z,1002.45
2019-03-01T10:26:30.287Z,1002.48
2019-03-01T10:27:30.292Z,1002.50
2019-03-01T10:28:30.270Z,1002.48
2019-03-01T10:29:30.260Z,1002.49
2019-03-01T10:30:30.249Z,1002.49
2019-03-01T10:31:30.269Z,1002.50
2019-03-01T10:32:30.229Z,1002.47
2019-03-01T10:33:30.225Z,1002.54
2019-03-01T10:34:30.206Z,1002.56
2019-03-01T10:35:30.194Z,1002.56
2019-03-01T10:36:30.254Z,1002.57
2019-03-01T10:37:30.189Z,1002.60
2019-03-01T10:38:30.164Z,1002.59
2019-03-01T10:39:30.151Z,1002.57
2019-03-01T10:40:30.146Z,1002.62
2019-03-01T10:41:30.140Z,1002.64
2019-03-01T10:42:30.142Z,1002.63
2019-03-01T10:43:30.114Z,1002.65
2019-03-01T10:44:30.103Z,1002.66
2019-03-01T10:45:30.097Z,1002.66
2019-03-01T10:46:30.079Z,1002.70
2019-03-01T10:47:30.086Z,1002.74
2019-03-01T10:48:30.060Z,1002.74
2019-03-01T10:49:31.038Z,1002.74
2019-03-01T10:50:30.041Z,1002.73
2019-03-01T10:51:30.033Z,1002.75
2019-03-01T10:52:30.053Z,1002.70
2019-03-01T10:53:30.002Z,1002.78
2019-03-01T10:54:30.016Z,1002.72
2019-03-01T10:55:29.983Z,1002.76
2019-03-01T10:56:29.983Z,1002.80
2019-03-01T10:57:29.964Z,1002.77
2019-03-01T10:58:29.974Z,1002.74
2019-03-01T10:59:29.980Z,1002.79
2019-03-01T11:00:29.951Z,1002.78
2019-03-01T11:01:29.913Z,1002.83
2019-03-01T11:02:29.911Z,1002.84
2019-03-01T11:03:29.914Z,1002.84
2019-03-01T11:04:29.913Z,1002.84
2019-03-01T11:05:29.894Z,1002.90
2019-03-01T11:06:29.887Z,1002.94
2019-03-01T11:07:29.849Z,1002.88
2019-03-01T11:08:29.849Z,1002.90
2019-03-01T11:09:29.849Z,1002.90
2019-03-01T11:10:29.841Z,1002.97
2019-03-01T11:11:29.809Z,1002.90
2019-03-01T11:12:29.798Z,1002.91
2019-03-01T11:13:29.796Z,1002.93
2019-03-01T11:14:29.785Z,1002.91
2019-03-01T11:15:29.804Z,1002.95
2019-03-01T11:16:29.760Z,1003.01
2019-03-01T11:17:29.760Z,1002.99
2019-03-01T11:18:29.735Z,1003.06
2019-03-01T11:19:29.730Z,1003.03
2019-03-01T11:20:29.717Z,1003.10
2019-03-01T11:21:29.726Z,1003.02
2019-03-01T11:22:29.723Z,1003.00
2019-03-01T11:23:29.689Z,1003.01
2019-03-01T11:24:29.674Z,1002.96
2019-03-01T11:25:29.661Z,1003.02
2019-03-01T11:26:29.675Z,1003.01
2019-03-01T11:27:29.655Z,1003.00
2019-03-01T11:28:29.638Z,1003.01
2019-03-01T11:29:29.631Z,1003.01
2019-03-01T11:30:29.611Z,1003.03
2019-03-01T11:31:29.684Z,1003.05
2019-03-01T11:32:29.590Z,1003.09
2019-03-01T11:33:29.580Z,1003.09
2019-03-01T11:34:29.575Z,1003.06
2019-03-01T11:35:29.569Z,1003.12
2019-03-01T11:36:29.553Z,1003.09
2019-03-01T11:37:29.562Z,1003.05
2019-03-01T11:38:29.524Z,1003.09
2019-03-01T11:39:29.515Z,1003.11
2019-03-01T11:40:29.523Z,1003.12
2019-03-01T11:41:29.503Z,1003.06
2019-03-01T11:42:29.499Z,1003.07
2019-03-01T11:43:29.470Z,1003.06
2019-03-01T11:44:29.460Z,1003.00
2019-03-01T11:45:29.451Z,1003.04
2019-03-01T11:46:29.448Z,1003.02
2019-03-01T11:47:29.459Z,1003.04
2019-03-01T11:48:29.422Z,1003.08
2019-03-01T11:49:29.413Z,1003.05
2019-03-01T11:50:29.409Z,1003.09
2019-03-01T11:51:29.395Z,1003.10
2019-03-01T11:52:29.415Z,1003.09
2019-03-01T11:53:29.370Z,1003.09
2019-03-01T11:54:29.359Z,1003.04
2019-03-01T11:55:29.352Z,1003.08
2019-03-01T11:56:29.341Z,1003.07
2019-03-01T11:57:29.326Z,1003.14
2019-03-01T11:58:29.337Z,1003.11
2019-03-01T11:59:29.306Z,1003.15
2019-03-01T12:00:29.294Z,1003.14
2019-03-01T12:01:29.290Z,1003.08
2019-03-01T12:02:29.294Z,1003.09
2019-03-01T12:03:29.267Z,1003.10
2019-03-01T12:04:29.284Z,1003.12
2019-03-01T12:05:29.240Z,1003.16
2019-03-01T12:06:29.232Z,1003.17